createdAt,value
2018-12-10T00:00:30.259Z,5.50
2018-12-10T00:03:03.435Z,5.50
2018-12-10T00:05:30.888Z,5.50
2018-12-10T00:07:58.341Z,5.50
2018-12-10T00:10:25.850Z,5.50
2018-12-10T00:12:53.291Z,5.50
2018-12-10T00:15:20.748Z,5.50
2018-12-10T00:17:48.207Z,5.40
2018-12-10T00:20:15.655Z,5.40
2018-12-10T00:22:43.147Z,5.40
2018-12-10T00:25:10.698Z,5.40
2018-12-10T00:27:38.266Z,5.40
2018-12-10T00:30:06.718Z,5.40
2018-12-10T00:32:34.219Z,5.40
2018-12-10T00:35:01.686Z,5.30
2018-12-10T00:37:29.197Z,5.20
2018-12-10T00:39:56.627Z,5.20
2018-12-10T00:42:24.094Z,5.20
2018-12-10T00:44:51.549Z,5.10
2018-12-10T00:47:19.038Z,5.10
2018-12-10T00:49:46.495Z,5.10
2018-12-10T00:52:13.950Z,5.00
2018-12-10T00:54:41.441Z,5.00
2018-12-10T00:57:08.935Z,5.00
2018-12-10T00:59:36.398Z,5.00
2018-12-10T01:02:03.859Z,4.90
2018-12-10T01:04:31.319Z,4.90
2018-12-10T01:06:58.952Z,4.90
2018-12-10T01:09:26.477Z,4.90
2018-12-10T01:11:53.927Z,4.90
2018-12-10T01:14:21.393Z,4.80
2018-12-10T01:16:48.847Z,4.80
2018-12-10T01:19:16.310Z,4.80
2018-12-10T01:21:43.769Z,4.80
2018-12-10T01:24:11.340Z,4.80
2018-12-10T01:26:38.838Z,4.80
2018-12-10T01:29:06.346Z,4.70
2018-12-10T01:31:33.799Z,4.70
2018-12-10T01:34:01.791Z,4.70
2018-12-10T01:36:29.279Z,4.70
2018-12-10T01:38:56.786Z,4.70
2018-12-10T01:41:24.236Z,4.70
2018-12-10T01:43:51.806Z,4.70
2018-12-10T01:46:19.251Z,4.70
2018-12-10T01:48:46.706Z,4.70
2018-12-10T01:51:14.191Z,4.70
2018-12-10T01:53:41.741Z,4.90
2018-12-10T01:56:09.278Z,4.90
2018-12-10T01:58:36.727Z,4.90
2018-12-10T02:01:04.235Z,4.90
2018-12-10T02:03:31.702Z,4.90
2018-12-10T02:05:59.150Z,4.90
2018-12-10T02:08:26.842Z,4.90
2018-12-10T02:10:54.289Z,4.80
2018-12-10T02:13:21.762Z,4.80
2018-12-10T02:15:49.221Z,4.70
2018-12-10T02:18:16.719Z,4.60
2018-12-10T02:20:44.159Z,4.60
2018-12-10T02:23:11.747Z,4.70
2018-12-10T02:25:39.320Z,4.60
2018-12-10T02:28:06.784Z,4.60
2018-12-10T02:30:34.323Z,4.60
2018-12-10T02:33:01.927Z,4.60
2018-12-10T02:35:29.402Z,4.60
2018-12-10T02:37:56.865Z,4.50
2018-12-10T02:40:24.307Z,4.50
2018-12-10T02:42:51.766Z,4.40
2018-12-10T02:45:19.259Z,4.40
2018-12-10T02:47:46.749Z,4.40
2018-12-10T02:50:14.277Z,4.50
2018-12-10T02:52:41.735Z,4.40
2018-12-10T02:55:09.179Z,4.40
2018-12-10T02:57:36.641Z,4.40
2018-12-10T03:00:05.279Z,4.40
2018-12-10T03:02:32.773Z,4.40
2018-12-10T03:05:00.227Z,4.40
2018-12-10T03:07:27.680Z,4.40
2018-12-10T03:09:55.128Z,4.40
2018-12-10T03:12:22.639Z,4.40
2018-12-10T03:14:50.287Z,4.40
2018-12-10T03:17:17.747Z,4.40
2018-12-10T03:19:45.273Z,4.40
2018-12-10T03:22:12.733Z,4.40
2018-12-10T03:24:40.175Z,4.30
2018-12-10T03:27:07.695Z,4.30
2018-12-10T03:29:35.146Z,4.30
2018-12-10T03:32:03.014Z,4.30
2018-12-10T03:34:30.598Z,4.30
2018-12-10T03:36:58.041Z,4.30
2018-12-10T03:39:25.510Z,4.20
2018-12-10T03:41:52.992Z,4.20
2018-12-10T03:44:20.509Z,4.30
2018-12-10T03:46:47.963Z,4.20
2018-12-10T03:49:15.399Z,4.20
2018-12-10T03:51:42.844Z,4.20
2018-12-10T03:54:10.288Z,4.30
2018-12-10T03:56:37.738Z,4.20
2018-12-10T03:59:05.191Z,4.20
2018-12-10T04:01:32.673Z,4.20
2018-12-10T04:04:00.150Z,4.20
2018-12-10T04:06:27.606Z,4.20
2018-12-10T04:08:55.071Z,4.20
2018-12-10T04:11:22.578Z,4.10
2018-12-10T04:13:50.042Z,4.10
2018-12-10T04:16:17.506Z,4.10
2018-12-10T04:18:44.994Z,4.10
2018-12-10T04:21:12.485Z,4.10
2018-12-10T04:23:39.989Z,4.10
2018-12-10T04:26:07.634Z,4.10
2018-12-10T04:28:35.090Z,4.10
2018-12-10T04:31:02.535Z,4.10
2018-12-10T04:33:29.978Z,4.10
2018-12-10T04:35:57.537Z,4.00
2018-12-10T04:38:24.995Z,4.10
2018-12-10T04:40:52.441Z,4.00
2018-12-10T04:43:19.919Z,4.00
2018-12-10T04:45:47.364Z,4.00
2018-12-10T04:48:14.805Z,4.00
2018-12-10T04:50:42.263Z,4.00
2018-12-10T04:53:09.703Z,3.90
2018-12-10T04:55:37.174Z,3.90
2018-12-10T04:58:04.682Z,4.00
2018-12-10T05:00:32.131Z,4.00
2018-12-10T05:03:00.833Z,4.10
2018-12-10T05:05:28.268Z,4.10
2018-12-10T05:07:55.715Z,4.20
2018-12-10T05:10:23.186Z,4.20
2018-12-10T05:12:50.678Z,4.20
2018-12-10T05:15:18.112Z,4.10
2018-12-10T05:17:45.568Z,4.10
2018-12-10T05:20:13.070Z,4.10
2018-12-10T05:22:40.534Z,4.00
2018-12-10T05:25:07.985Z,4.00
2018-12-10T05:27:35.442Z,4.00
2018-12-10T05:30:03.109Z,4.00
2018-12-10T05:32:30.576Z,4.00
2018-12-10T05:34:58.051Z,3.90
2018-12-10T05:37:25.518Z,3.90
2018-12-10T05:39:52.982Z,4.00
2018-12-10T05:42:20.434Z,3.90
2018-12-10T05:44:47.890Z,3.90
2018-12-10T05:47:15.371Z,3.80
2018-12-10T05:49:42.867Z,3.80
2018-12-10T05:52:10.331Z,3.80
2018-12-10T05:54:37.789Z,3.80
2018-12-10T05:57:05.303Z,3.80
2018-12-10T05:59:32.748Z,3.80
2018-12-10T06:02:00.205Z,3.80
2018-12-10T06:04:27.656Z,3.80
2018-12-10T06:06:55.100Z,3.80
2018-12-10T06:09:22.569Z,3.80
2018-12-10T06:11:50.022Z,3.70
2018-12-10T06:14:17.526Z,3.80
2018-12-10T06:16:45.058Z,3.80
2018-12-10T06:19:12.536Z,3.80
2018-12-10T06:21:39.989Z,3.80
2018-12-10T06:24:07.443Z,3.80
2018-12-10T06:26:34.907Z,3.90
2018-12-10T06:29:02.403Z,3.80
2018-12-10T06:31:29.902Z,3.80
2018-12-10T06:33:57.351Z,3.80
2018-12-10T06:36:24.854Z,3.80
2018-12-10T06:38:52.287Z,3.80
2018-12-10T06:41:19.750Z,3.70
2018-12-10T06:43:47.191Z,3.70
2018-12-10T06:46:14.686Z,3.80
2018-12-10T06:48:42.123Z,3.70
2018-12-10T06:51:09.594Z,3.60
2018-12-10T06:53:37.047Z,3.60
2018-12-10T06:56:04.556Z,3.70
2018-12-10T06:58:32.015Z,3.60
2018-12-10T07:01:00.070Z,3.60
2018-12-10T07:03:27.733Z,3.60
2018-12-10T07:05:55.203Z,3.60
2018-12-10T07:08:22.644Z,3.60
2018-12-10T07:10:50.107Z,3.60
2018-12-10T07:13:17.566Z,3.60
2018-12-10T07:15:45.009Z,3.60
2018-12-10T07:18:12.465Z,3.70
2018-12-10T07:20:39.903Z,3.60
2018-12-10T07:23:07.357Z,3.70
2018-12-10T07:25:34.908Z,3.70
2018-12-10T07:28:02.455Z,3.80
2018-12-10T07:30:29.899Z,3.80
2018-12-10T07:32:57.335Z,3.80
2018-12-10T07:35:24.828Z,3.70
2018-12-10T07:37:52.273Z,3.70
2018-12-10T07:40:19.738Z,3.70
2018-12-10T07:42:47.181Z,3.80
2018-12-10T07:45:14.643Z,3.80
2018-12-10T07:47:42.094Z,3.80
2018-12-10T07:50:09.964Z,3.80
2018-12-10T07:52:37.404Z,3.80
2018-12-10T07:55:04.965Z,3.80
2018-12-10T07:57:32.424Z,3.70
2018-12-10T07:59:59.907Z,3.80
2018-12-10T08:02:27.366Z,3.80
2018-12-10T08:04:54.803Z,3.90
2018-12-10T08:07:22.271Z,3.90
2018-12-10T08:09:49.700Z,3.90
2018-12-10T08:12:17.147Z,3.90
2018-12-10T08:14:44.634Z,4.00
2018-12-10T08:17:12.111Z,4.00
2018-12-10T08:19:41.542Z,4.00
2018-12-10T08:22:09.008Z,4.00
2018-12-10T08:24:36.465Z,4.00
2018-12-10T08:27:09.471Z,4.00
2018-12-10T08:29:33.432Z,4.00
2018-12-10T08:32:01.045Z,4.00
2018-12-10T08:34:28.561Z,3.90
2018-12-10T08:36:56.066Z,3.90
2018-12-10T08:39:23.526Z,4.00
2018-12-10T08:41:50.978Z,4.00
2018-12-10T08:44:18.424Z,4.10
2018-12-10T08:46:45.884Z,4.10
2018-12-10T08:49:13.322Z,4.20
2018-12-10T08:51:40.778Z,4.20
2018-12-10T08:54:08.277Z,4.20
2018-12-10T08:56:35.730Z,4.30
2018-12-10T08:59:03.244Z,4.30
2018-12-10T09:01:30.694Z,4.40
2018-12-10T09:03:58.140Z,4.50
2018-12-10T09:06:25.602Z,4.70
2018-12-10T09:08:53.078Z,4.70
2018-12-10T09:11:20.518Z,4.70
2018-12-10T09:13:48.312Z,4.70
2018-12-10T09:16:15.751Z,4.60
2018-12-10T09:18:43.280Z,4.50
2018-12-10T09:21:10.854Z,4.40
2018-12-10T09:23:38.410Z,4.30
2018-12-10T09:26:05.870Z,4.40
2018-12-10T09:28:33.326Z,4.40
2018-12-10T09:31:00.785Z,4.40
2018-12-10T09:33:28.227Z,4.40
2018-12-10T09:35:55.688Z,4.40
2018-12-10T09:38:23.133Z,4.50
2018-12-10T09:40:50.629Z,4.50
2018-12-10T09:43:18.071Z,4.60
2018-12-10T09:45:45.578Z,4.60
2018-12-10T09:48:13.056Z,4.60
2018-12-10T09:50:40.510Z,4.60
2018-12-10T09:53:07.962Z,4.70
2018-12-10T09:55:35.420Z,4.70
2018-12-10T09:58:02.929Z,4.80
2018-12-10T10:00:30.430Z,4.80
2018-12-10T10:02:57.927Z,4.80
2018-12-10T10:05:25.375Z,4.90
2018-12-10T10:07:52.831Z,4.90
2018-12-10T10:10:20.313Z,5.00
2018-12-10T10:12:47.852Z,5.10
2018-12-10T10:15:15.294Z,5.20
2018-12-10T10:17:42.750Z,5.40
2018-12-10T10:20:10.242Z,5.40
2018-12-10T10:22:37.702Z,5.50
2018-12-10T10:25:05.306Z,5.60
2018-12-10T10:27:32.753Z,5.70
2018-12-10T10:30:00.209Z,5.60
2018-12-10T10:32:27.648Z,5.60
2018-12-10T10:34:55.143Z,5.60
2018-12-10T10:37:22.646Z,5.60
2018-12-10T10:39:50.212Z,5.60
2018-12-10T10:42:17.675Z,5.50
2018-12-10T10:44:45.131Z,5.50
2018-12-10T10:47:12.590Z,5.50
2018-12-10T10:49:40.046Z,5.50
2018-12-10T10:52:07.548Z,5.60
2018-12-10T10:54:35.010Z,5.60
2018-12-10T10:57:02.526Z,5.70
2018-12-10T10:59:29.975Z,5.80
2018-12-10T11:01:59.415Z,5.80
2018-12-10T11:04:26.904Z,5.80
2018-12-10T11:06:54.339Z,5.80
2018-12-10T11:09:21.787Z,5.80
2018-12-10T11:11:49.224Z,5.70
2018-12-10T11:14:16.675Z,5.80
2018-12-10T11:16:44.121Z,5.70
2018-12-10T11:19:11.664Z,5.80
2018-12-10T11:21:39.155Z,5.80
2018-12-10T11:24:06.598Z,5.80
2018-12-10T11:26:34.061Z,5.80
2018-12-10T11:29:01.521Z,5.80
2018-12-10T11:31:29.000Z,5.80
2018-12-10T11:33:56.490Z,5.80
2018-12-10T11:36:23.985Z,5.90
2018-12-10T11:38:51.437Z,5.90
2018-12-10T11:41:18.882Z,6.00
2018-12-10T11:43:46.327Z,6.10
2018-12-10T11:46:13.773Z,6.20
2018-12-10T11:48:41.212Z,6.20
2018-12-10T11:51:08.673Z,6.20
2018-12-10T11:53:36.134Z,6.30
2018-12-10T11:56:03.618Z,6.40
2018-12-10T11:58:31.115Z,6.50
2018-12-10T12:00:58.622Z,6.50
2018-12-10T12:03:26.063Z,6.50
2018-12-10T12:05:53.530Z,6.60
2018-12-10T12:08:20.971Z,6.70
2018-12-10T12:10:48.442Z,6.70
2018-12-10T12:13:15.898Z,6.70
2018-12-10T12:15:43.334Z,6.70
2018-12-10T12:18:10.805Z,6.70
2018-12-10T12:20:38.352Z,6.70
2018-12-10T12:23:05.827Z,6.60
2018-12-10T12:25:33.347Z,6.60
2018-12-10T12:28:00.818Z,6.60
2018-12-10T12:30:28.307Z,6.60
2018-12-10T12:32:55.761Z,6.80
2018-12-10T12:35:23.266Z,7.40
2018-12-10T12:37:50.726Z,7.80
2018-12-10T12:40:18.222Z,8.10
2018-12-10T12:42:45.688Z,8.60
2018-12-10T12:45:13.132Z,8.70
2018-12-10T12:47:40.597Z,8.60
2018-12-10T12:50:08.095Z,8.20
2018-12-10T12:52:35.557Z,8.00
2018-12-10T12:55:03.045Z,7.60
2018-12-10T12:57:30.497Z,7.30
2018-12-10T12:59:57.953Z,7.10
2018-12-10T13:02:25.410Z,7.00
2018-12-10T13:04:52.856Z,6.80
2018-12-10T13:07:20.303Z,6.60
2018-12-10T13:09:47.975Z,6.60
2018-12-10T13:12:15.849Z,6.60
2018-12-10T13:14:43.303Z,6.70
2018-12-10T13:17:10.743Z,6.90
2018-12-10T13:19:38.203Z,7.60
2018-12-10T13:22:05.654Z,7.90
2018-12-10T13:24:33.100Z,8.00
2018-12-10T13:27:00.586Z,7.90
2018-12-10T13:31:59.401Z,7.50
2018-12-10T13:34:27.039Z,7.60
2018-12-10T13:36:54.505Z,7.60
2018-12-10T13:39:21.946Z,7.70
2018-12-10T13:41:49.391Z,7.60
2018-12-10T13:44:16.854Z,7.70
2018-12-10T13:46:44.322Z,7.80
2018-12-10T13:49:11.841Z,7.80
2018-12-10T13:51:39.311Z,7.60
2018-12-10T13:54:06.747Z,7.60
2018-12-10T13:56:34.272Z,7.50
2018-12-10T13:59:01.731Z,7.40
2018-12-10T14:01:29.172Z,7.50
2018-12-10T14:03:56.626Z,7.40
2018-12-10T14:06:24.099Z,7.40
2018-12-10T14:08:51.548Z,7.20
2018-12-10T14:11:19.027Z,7.20
2018-12-10T14:13:46.564Z,7.10
2018-12-10T14:16:14.058Z,7.10
2018-12-10T14:18:41.501Z,7.00
2018-12-10T14:21:08.935Z,7.00
2018-12-10T14:23:36.467Z,6.90
2018-12-10T14:26:03.959Z,6.50
2018-12-10T14:28:31.397Z,6.30
2018-12-10T14:30:59.461Z,6.10
2018-12-10T14:33:27.102Z,6.10
2018-12-10T14:35:54.558Z,5.90
2018-12-10T14:38:22.051Z,5.90
2018-12-10T14:40:49.502Z,5.90
2018-12-10T14:43:16.986Z,5.80
2018-12-10T14:45:44.470Z,5.80
2018-12-10T14:48:11.946Z,5.80
2018-12-10T14:50:39.398Z,5.80
2018-12-10T14:53:06.848Z,5.80
2018-12-10T14:55:34.320Z,5.80
2018-12-10T14:58:02.189Z,5.70
2018-12-10T15:00:29.683Z,5.60
2018-12-10T15:02:57.642Z,5.60
2018-12-10T15:05:25.319Z,5.60
2018-12-10T15:07:52.811Z,5.50
2018-12-10T15:10:23.287Z,5.50
2018-12-10T15:12:49.733Z,5.50
2018-12-10T15:15:17.237Z,5.40
2018-12-10T15:17:44.734Z,5.40
2018-12-10T15:20:12.449Z,5.40
2018-12-10T15:22:40.019Z,5.30
2018-12-10T15:25:07.650Z,5.20
2018-12-10T15:27:35.963Z,5.30
2018-12-10T15:30:04.934Z,5.20
2018-12-10T15:32:32.377Z,5.20
2018-12-10T15:34:59.884Z,5.20
2018-12-10T15:37:27.353Z,5.10
2018-12-10T15:39:54.810Z,5.10
2018-12-10T15:42:22.264Z,5.10
2018-12-10T15:44:49.747Z,5.10
2018-12-10T15:47:17.199Z,5.10
2018-12-10T15:49:44.644Z,5.10
2018-12-10T15:52:12.139Z,5.00
2018-12-10T15:54:39.604Z,5.00
2018-12-10T15:57:07.149Z,5.00
2018-12-10T15:59:34.643Z,5.00
2018-12-10T16:02:02.247Z,5.00
2018-12-10T16:04:31.683Z,5.00
2018-12-10T16:06:59.231Z,4.90
2018-12-10T16:09:26.687Z,5.00
2018-12-10T16:11:54.145Z,4.90
2018-12-10T16:14:21.602Z,4.90
2018-12-10T16:16:49.051Z,4.90
2018-12-10T16:19:16.521Z,4.90
2018-12-10T16:21:44.059Z,4.90
2018-12-10T16:24:11.639Z,4.80
2018-12-10T16:26:39.109Z,4.80
2018-12-10T16:29:06.606Z,4.80
2018-12-10T16:31:34.071Z,4.80
2018-12-10T16:34:02.108Z,4.80
2018-12-10T16:36:29.560Z,4.80
2018-12-10T16:38:57.067Z,4.80
2018-12-10T16:41:24.521Z,4.80
2018-12-10T16:43:52.032Z,4.80
2018-12-10T16:46:19.494Z,4.80
2018-12-10T16:48:46.945Z,4.90
2018-12-10T16:51:14.415Z,4.90
2018-12-10T16:53:41.907Z,4.90
2018-12-10T16:56:09.353Z,5.00
2018-12-10T16:58:36.818Z,5.10
2018-12-10T17:01:04.286Z,5.10
2018-12-10T17:03:31.757Z,5.10
2018-12-10T17:05:59.201Z,5.00
2018-12-10T17:08:26.690Z,5.00
2018-12-10T17:10:54.183Z,5.10
2018-12-10T17:13:21.638Z,5.10
2018-12-10T17:15:49.128Z,5.20
2018-12-10T17:18:16.585Z,5.20
2018-12-10T17:20:44.031Z,5.20
2018-12-10T17:23:11.496Z,5.20
2018-12-10T17:25:39.196Z,5.20
2018-12-10T17:28:06.665Z,5.10
2018-12-10T17:30:34.112Z,5.20
2018-12-10T17:33:01.571Z,5.20
2018-12-10T17:35:29.014Z,5.20
2018-12-10T17:37:56.456Z,5.10
2018-12-10T17:40:23.911Z,5.10
2018-12-10T17:42:51.433Z,5.20
2018-12-10T17:45:18.965Z,5.20
2018-12-10T17:47:46.459Z,5.20
2018-12-10T17:50:14.113Z,5.30
2018-12-10T17:52:41.567Z,5.20
2018-12-10T17:55:09.371Z,5.20
2018-12-10T17:57:36.902Z,5.30
2018-12-10T18:00:06.331Z,5.30
2018-12-10T18:02:33.784Z,5.30
2018-12-10T18:05:01.280Z,5.30
2018-12-10T18:07:28.796Z,5.20
2018-12-10T18:09:56.256Z,5.20
2018-12-10T18:12:23.910Z,5.10
2018-12-10T18:14:51.353Z,5.10
2018-12-10T18:17:18.799Z,5.00
2018-12-10T18:19:46.247Z,4.90
2018-12-10T18:22:13.850Z,4.90
2018-12-10T18:24:41.389Z,4.80
2018-12-10T18:27:08.840Z,4.80
2018-12-10T18:29:36.307Z,4.70
2018-12-10T18:32:03.874Z,4.70
2018-12-10T18:34:31.322Z,4.60
2018-12-10T18:36:58.821Z,4.60
2018-12-10T18:39:26.335Z,4.60
2018-12-10T18:41:53.775Z,4.60
2018-12-10T18:44:21.223Z,4.50
2018-12-10T18:46:48.682Z,4.50
2018-12-10T18:49:16.141Z,4.40
2018-12-10T18:51:43.621Z,4.40
2018-12-10T18:54:11.069Z,4.40
2018-12-10T18:56:38.512Z,4.40
2018-12-10T18:59:06.015Z,4.40
2018-12-10T19:01:33.474Z,4.40
2018-12-10T19:04:01.320Z,4.40
2018-12-10T19:06:28.782Z,4.40
2018-12-10T19:08:56.574Z,4.40
2018-12-10T19:11:24.162Z,4.40
2018-12-10T19:13:51.646Z,4.30
2018-12-10T19:16:19.083Z,4.40
2018-12-10T19:18:46.646Z,4.30
2018-12-10T19:21:14.207Z,4.30
2018-12-10T19:23:41.768Z,4.30
2018-12-10T19:26:09.315Z,4.30
2018-12-10T19:28:36.764Z,4.30
2018-12-10T19:31:04.246Z,4.30
2018-12-10T19:33:31.784Z,4.30
2018-12-10T19:35:59.370Z,4.40
2018-12-10T19:38:26.874Z,4.40
2018-12-10T19:40:54.367Z,4.40
2018-12-10T19:43:21.820Z,4.40
2018-12-10T19:45:49.381Z,4.40
2018-12-10T19:48:17.048Z,4.40
2018-12-10T19:50:44.726Z,4.40
2018-12-10T19:53:12.234Z,4.40
2018-12-10T19:55:39.823Z,4.40
2018-12-10T19:58:07.292Z,4.40
2018-12-10T20:00:34.788Z,4.30
2018-12-10T20:03:05.209Z,4.30
2018-12-10T20:05:38.395Z,4.20
2018-12-10T20:08:05.883Z,4.20
2018-12-10T20:10:33.353Z,4.20
2018-12-10T20:13:00.858Z,4.20
2018-12-10T20:15:28.308Z,4.20
2018-12-10T20:17:56.778Z,4.20
2018-12-10T20:20:24.238Z,4.20
2018-12-10T20:22:51.692Z,4.20
2018-12-10T20:25:19.297Z,4.20
2018-12-10T20:27:46.926Z,4.10
2018-12-10T20:30:15.211Z,4.10
2018-12-10T20:32:42.770Z,4.10
2018-12-10T20:35:10.224Z,4.00
2018-12-10T20:37:37.704Z,4.00
2018-12-10T20:40:06.175Z,4.00
2018-12-10T20:42:33.722Z,4.00
2018-12-10T20:45:01.275Z,3.90
2018-12-10T20:47:28.870Z,3.90
2018-12-10T20:49:56.386Z,3.90
2018-12-10T20:52:23.984Z,3.90
2018-12-10T20:54:51.517Z,3.90
2018-12-10T20:57:19.076Z,3.90
2018-12-10T20:59:46.635Z,3.80
2018-12-10T21:02:14.371Z,3.90
2018-12-10T21:04:41.911Z,3.80
2018-12-10T21:07:09.373Z,3.80
2018-12-10T21:09:36.873Z,3.80
2018-12-10T21:12:04.480Z,3.80
2018-12-10T21:14:31.945Z,3.80
2018-12-10T21:16:59.452Z,3.90
2018-12-10T21:19:27.080Z,3.90
2018-12-10T21:21:54.558Z,3.90
2018-12-10T21:24:22.124Z,3.90
2018-12-10T21:26:49.677Z,3.90
2018-12-10T21:29:17.175Z,3.90
2018-12-10T21:31:44.619Z,3.90
2018-12-10T21:34:12.178Z,3.80
2018-12-10T21:36:40.027Z,3.80
2018-12-10T21:39:07.694Z,3.80
2018-12-10T21:41:35.137Z,3.80
2018-12-10T21:44:02.614Z,3.80
2018-12-10T21:46:30.175Z,3.70
2018-12-10T21:48:57.841Z,3.70
2018-12-10T21:51:25.285Z,3.70
2018-12-10T21:53:52.766Z,3.80
2018-12-10T21:56:20.211Z,3.80
2018-12-10T21:58:47.765Z,3.70
2018-12-10T22:01:15.308Z,3.70
2018-12-10T22:03:42.886Z,3.80
2018-12-10T22:06:10.427Z,3.90
2018-12-10T22:08:37.877Z,4.00
2018-12-10T22:11:05.396Z,4.00
2018-12-10T22:13:32.855Z,4.10
2018-12-10T22:16:00.311Z,4.10
2018-12-10T22:18:27.772Z,4.20
2018-12-10T22:20:55.254Z,4.20
2018-12-10T22:23:22.688Z,4.10
2018-12-10T22:25:50.183Z,4.20
2018-12-10T22:28:17.673Z,4.20
2018-12-10T22:30:45.147Z,4.20
2018-12-10T22:33:12.614Z,4.20
2018-12-10T22:35:40.084Z,4.20
2018-12-10T22:38:07.532Z,4.20
2018-12-10T22:40:35.031Z,4.20
2018-12-10T22:43:02.523Z,4.10
2018-12-10T22:45:29.978Z,4.10
2018-12-10T22:47:57.508Z,4.10
2018-12-10T22:50:24.983Z,4.10
2018-12-10T22:52:52.440Z,4.10
2018-12-10T22:55:19.884Z,4.10
2018-12-10T22:57:47.362Z,4.10
2018-12-10T23:00:14.823Z,4.10
2018-12-10T23:02:42.307Z,4.00
2018-12-10T23:05:09.770Z,4.00
2018-12-10T23:07:37.263Z,3.90
2018-12-10T23:10:05.443Z,3.80
2018-12-10T23:12:33.254Z,3.80
2018-12-10T23:15:00.701Z,3.80
2018-12-10T23:17:28.153Z,3.80
2018-12-10T23:19:55.623Z,3.80
2018-12-10T23:22:23.193Z,3.70
2018-12-10T23:24:50.710Z,3.70
2018-12-10T23:27:18.165Z,3.70
2018-12-10T23:29:45.614Z,3.80
2018-12-10T23:32:13.109Z,3.70
2018-12-10T23:34:40.630Z,3.70
2018-12-10T23:37:08.094Z,3.80
2018-12-10T23:39:35.547Z,3.90
2018-12-10T23:42:03.117Z,3.90
2018-12-10T23:44:36.237Z,3.90
2018-12-10T23:47:03.736Z,4.00
2018-12-10T23:49:31.193Z,4.00
2018-12-10T23:51:58.652Z,4.00
2018-12-10T23:54:26.138Z,4.00
2018-12-10T23:56:53.584Z,4.00
2018-12-10T23:59:21.081Z,3.90
